Time;durP1;ratioP1;P1;durP2;ratioP2;P2;SDS_P1;SDS_P2;PMS_P1;PMS_P2;Temp;Humidity;BMP_temperature;BMP_pressure;BME280_temperature;BME280_humidity;BME280_pressure;Samples;Min_cycle;Max_cycle;Signal;HPM_P1;HPM_P2
2021/03/22 00:01:18;;;;;;;4.00;1.60;;;;;;;;;;5054393;28;20025;-86
2021/03/22 00:03:44;;;;;;;3.33;1.20;;;;;;;;;;5079473;28;20086;-86
2021/03/22 00:06:11;;;;;;;2.28;1.30;;;;;;;;;;5076354;28;20029;-86
2021/03/22 00:08:37;;;;;;;4.95;1.50;;;;;;;;;;5063805;28;20072;-85
2021/03/22 00:11:03;;;;;;;3.92;1.35;;;;;;;;;;5054609;28;20470;-85
2021/03/22 00:13:30;;;;;;;2.97;1.27;;;;;;;;;;5053419;28;20464;-85
2021/03/22 00:15:57;;;;;;;3.17;1.42;;;;;;;;;;5061978;28;20430;-86
2021/03/22 00:18:25;;;;;;;4.35;1.75;;;;;;;;;;5053747;28;20063;-85
2021/03/22 00:20:51;;;;;;;3.95;1.70;;;;;;;;;;5057799;28;20355;-85
2021/03/22 00:23:17;;;;;;;5.32;1.40;;;;;;;;;;5058494;28;20037;-85
2021/03/22 00:25:43;;;;;;;4.43;1.42;;;;;;;;;;5057411;28;20560;-85
2021/03/22 00:28:10;;;;;;;7.45;1.63;;;;;;;;;;5056896;28;20412;-85
2021/03/22 00:30:38;;;;;;;6.85;1.52;;;;;;;;;;5059962;28;20032;-86
2021/03/22 00:33:05;;;;;;;4.82;1.35;;;;;;;;;;5068512;28;20021;-85
2021/03/22 00:35:31;;;;;;;4.05;1.65;;;;;;;;;;5059602;28;20048;-85
2021/03/22 00:37:57;;;;;;;3.05;1.33;;;;;;;;;;5062423;28;20062;-85
2021/03/22 00:40:26;;;;;;;5.03;1.50;;;;;;;;;;5062470;28;20031;-86
2021/03/22 00:42:52;;;;;;;5.50;1.60;;;;;;;;;;5057777;28;20028;-86
2021/03/22 00:45:19;;;;;;;3.00;1.17;;;;;;;;;;5061315;28;20036;-85
2021/03/22 00:47:45;;;;;;;3.25;1.05;;;;;;;;;;5057628;28;20026;-85
2021/03/22 00:50:18;;;;;;;7.47;1.40;;;;;;;;;;5060390;28;20032;-84
2021/03/22 00:52:44;;;;;;;3.83;1.53;;;;;;;;;;5052637;28;20036;-86
2021/03/22 00:55:10;;;;;;;9.70;1.60;;;;;;;;;;5060806;28;20255;-84
2021/03/22 00:57:36;;;;;;;7.65;1.60;;;;;;;;;;5063040;28;20083;-85
2021/03/22 01:00:04;;;;;;;2.53;1.20;;;;;;;;;;5062593;28;20461;-85
2021/03/22 01:02:30;;;;;;;2.88;1.33;;;;;;;;;;5066435;28;20035;-85
2021/03/22 01:04:56;;;;;;;3.15;1.30;;;;;;;;;;5061276;28;20021;-85
2021/03/22 01:07:22;;;;;;;4.97;1.35;;;;;;;;;;5061346;28;20032;-85
2021/03/22 01:09:48;;;;;;;5.40;1.50;;;;;;;;;;5059849;28;20021;-85
2021/03/22 01:12:14;;;;;;;4.15;2.13;;;;;;;;;;5059768;28;20095;-84
2021/03/22 01:14:40;;;;;;;5.63;1.48;;;;;;;;;;5057213;28;20025;-85
2021/03/22 01:17:06;;;;;;;5.43;1.50;;;;;;;;;;5058585;28;20037;-84
2021/03/22 01:19:32;;;;;;;2.63;1.30;;;;;;;;;;5056077;28;20021;-84
2021/03/22 01:22:00;;;;;;;6.18;1.50;;;;;;;;;;5056157;28;20473;-84
2021/03/22 01:24:28;;;;;;;6.13;1.52;;;;;;;;;;5056315;28;20025;-84
2021/03/22 01:26:57;;;;;;;6.00;1.55;;;;;;;;;;5055355;28;20255;-84
2021/03/22 01:29:25;;;;;;;6.15;1.75;;;;;;;;;;5059844;28;20093;-84
2021/03/22 01:31:54;;;;;;;7.22;1.50;;;;;;;;;;5060409;28;20055;-84
2021/03/22 01:34:20;;;;;;;5.82;1.52;;;;;;;;;;5058649;28;20044;-84
2021/03/22 01:36:46;;;;;;;6.05;1.35;;;;;;;;;;5058015;28;20070;-85
2021/03/22 01:39:15;;;;;;;6.72;1.38;;;;;;;;;;5058411;28;20098;-85
2021/03/22 01:41:40;;;;;;;6.38;1.27;;;;;;;;;;5067052;28;20036;-85
2021/03/22 01:44:10;;;;;;;5.40;1.65;;;;;;;;;;5058867;28;20392;-85
2021/03/22 01:46:37;;;;;;;4.63;1.40;;;;;;;;;;5058800;28;20017;-85
2021/03/22 01:49:04;;;;;;;9.73;1.30;;;;;;;;;;5060230;28;20056;-86
2021/03/22 01:51:30;;;;;;;4.65;1.60;;;;;;;;;;5058899;28;20472;-85
2021/03/22 01:53:57;;;;;;;4.43;1.42;;;;;;;;;;5058245;28;20397;-85
2021/03/22 01:56:23;;;;;;;8.63;1.80;;;;;;;;;;5060181;28;20071;-86
2021/03/22 01:58:49;;;;;;;7.63;1.42;;;;;;;;;;5058664;28;20021;-85
2021/03/22 02:01:15;;;;;;;6.97;2.25;;;;;;;;;;5058604;28;20025;-84
2021/03/22 02:03:42;;;;;;;5.75;1.40;;;;;;;;;;5056070;28;20123;-84
2021/03/22 02:06:08;;;;;;;5.07;2.35;;;;;;;;;;5057285;28;20064;-83
2021/03/22 02:08:39;;;;;;;6.60;2.05;;;;;;;;;;5067397;28;20037;-84
2021/03/22 02:11:22;;;;;;;8.65;1.92;;;;;;;;;;5057261;28;20017;-84
2021/03/22 02:13:49;;;;;;;5.47;1.75;;;;;;;;;;5051959;28;20021;-83
2021/03/22 02:16:20;;;;;;;6.45;1.70;;;;;;;;;;5057957;28;20439;-84
2021/03/22 02:18:53;;;;;;;4.68;1.50;;;;;;;;;;5057284;28;20091;-84
2021/03/22 02:21:45;;;;;;;5.60;1.50;;;;;;;;;;5056857;28;20476;-83
2021/03/22 02:24:17;;;;;;;4.65;1.67;;;;;;;;;;5055363;28;20036;-84
2021/03/22 02:26:59;;;;;;;7.97;1.90;;;;;;;;;;5048358;28;20024;-84
2021/03/22 02:29:31;;;;;;;6.90;1.70;;;;;;;;;;5056601;28;20369;-84
2021/03/22 02:32:16;;;;;;;2.92;1.42;;;;;;;;;;5055858;28;20104;-84
2021/03/22 02:34:46;;;;;;;8.57;2.00;;;;;;;;;;5067901;28;20035;-84
2021/03/22 02:37:28;;;;;;;8.50;2.40;;;;;;;;;;5060726;28;20077;-84
2021/03/22 02:40:10;;;;;;;4.38;1.38;;;;;;;;;;5056740;28;20037;-83
2021/03/22 02:42:40;;;;;;;11.63;2.50;;;;;;;;;;5062304;28;20063;-84
2021/03/22 02:45:07;;;;;;;10.95;3.00;;;;;;;;;;5052644;28;20056;-84
2021/03/22 02:47:37;;;;;;;9.25;1.95;;;;;;;;;;5053959;28;20017;-84
2021/03/22 02:50:12;;;;;;;8.10;2.08;;;;;;;;;;5053872;28;20029;-84
2021/03/22 02:52:41;;;;;;;7.15;2.72;;;;;;;;;;5052538;28;20187;-84
2021/03/22 02:55:07;;;;;;;6.00;2.00;;;;;;;;;;5059338;28;20643;-84
2021/03/22 02:57:51;;;;;;;5.68;1.88;;;;;;;;;;5052178;28;20052;-84
2021/03/22 03:00:17;;;;;;;;;;;;;;;;;;5053760;28;20511;-84
2021/03/22 03:02:43;;;;;;;6.38;1.92;;;;;;;;;;5051970;28;20010;-84
2021/03/22 03:05:16;;;;;;;6.50;2.28;;;;;;;;;;5063341;28;20056;-84
2021/03/22 03:07:43;;;;;;;11.02;2.38;;;;;;;;;;5055718;28;20025;-84
2021/03/22 03:10:10;;;;;;;4.75;2.20;;;;;;;;;;5054884;28;20107;-83
2021/03/22 03:12:36;;;;;;;13.60;2.28;;;;;;;;;;5063884;28;20107;-84
2021/03/22 03:15:03;;;;;;;6.00;1.67;;;;;;;;;;5054459;28;20025;-84
2021/03/22 03:17:29;;;;;;;14.65;2.55;;;;;;;;;;5064360;28;20455;-83
2021/03/22 03:19:55;;;;;;;15.02;2.83;;;;;;;;;;5054564;28;20029;-85
2021/03/22 03:22:23;;;;;;;7.97;2.05;;;;;;;;;;5036715;28;20140;-84
2021/03/22 03:24:49;;;;;;;11.75;1.92;;;;;;;;;;5055428;28;20032;-84
2021/03/22 03:27:15;;;;;;;6.57;2.38;;;;;;;;;;5058655;28;20104;-85
2021/03/22 03:29:42;;;;;;;14.82;3.05;;;;;;;;;;5053834;28;20028;-85
2021/03/22 03:32:10;;;;;;;12.35;3.63;;;;;;;;;;5054234;28;20025;-84
2021/03/22 03:34:36;;;;;;;7.47;3.03;;;;;;;;;;5060375;28;20112;-84
2021/03/22 03:37:02;;;;;;;12.88;3.25;;;;;;;;;;5058753;28;20087;-85
2021/03/22 03:39:28;;;;;;;15.80;3.05;;;;;;;;;;5046905;28;20030;-85
2021/03/22 03:41:54;;;;;;;11.93;3.58;;;;;;;;;;5048608;28;20496;-85
2021/03/22 03:44:20;;;;;;;8.20;2.70;;;;;;;;;;5057982;28;20055;-85
2021/03/22 03:46:46;;;;;;;11.70;2.60;;;;;;;;;;5061634;28;20024;-84
2021/03/22 03:49:12;;;;;;;10.75;2.70;;;;;;;;;;5055673;28;20027;-84
2021/03/22 03:51:39;;;;;;;18.25;2.97;;;;;;;;;;5066239;28;20479;-85
2021/03/22 03:54:10;;;;;;;16.02;2.78;;;;;;;;;;5054983;28;20025;-85
2021/03/22 03:56:36;;;;;;;9.10;2.95;;;;;;;;;;5051043;28;20412;-84
2021/03/22 03:59:02;;;;;;;12.38;2.88;;;;;;;;;;5056003;28;20051;-84
2021/03/22 04:01:28;;;;;;;7.72;2.55;;;;;;;;;;5055879;28;20535;-84
2021/03/22 04:03:55;;;;;;;16.08;2.85;;;;;;;;;;5056494;28;20128;-84
2021/03/22 04:06:23;;;;;;;14.30;3.00;;;;;;;;;;5055049;28;20083;-84
2021/03/22 04:08:56;;;;;;;14.55;3.33;;;;;;;;;;5069477;28;20025;-83
2021/03/22 04:11:24;;;;;;;14.05;2.78;;;;;;;;;;5054519;28;20029;-84
2021/03/22 04:13:50;;;;;;;15.48;2.75;;;;;;;;;;5053813;28;20032;-84
2021/03/22 04:16:16;;;;;;;18.50;3.22;;;;;;;;;;5054518;28;20056;-85
2021/03/22 04:18:42;;;;;;;13.88;2.80;;;;;;;;;;5054217;28;20017;-85
2021/03/22 04:21:17;;;;;;;10.93;2.90;;;;;;;;;;5053938;28;20028;-85
2021/03/22 04:23:44;;;;;;;17.48;3.28;;;;;;;;;;5058339;28;20064;-85
2021/03/22 04:26:11;;;;;;;9.25;2.70;;;;;;;;;;5054289;28;20029;-85
2021/03/22 04:28:37;;;;;;;14.75;3.53;;;;;;;;;;5054952;28;20055;-83
2021/03/22 04:31:03;;;;;;;14.05;3.22;;;;;;;;;;5051206;28;20100;-84
2021/03/22 04:33:29;;;;;;;12.45;2.85;;;;;;;;;;5052584;28;20481;-86
2021/03/22 04:35:56;;;;;;;11.80;3.28;;;;;;;;;;5053699;28;20533;-85
2021/03/22 04:38:22;;;;;;;15.10;3.30;;;;;;;;;;5053927;28;20060;-84
2021/03/22 04:40:48;;;;;;;23.80;3.42;;;;;;;;;;5045892;28;20114;-84
2021/03/22 04:43:14;;;;;;;17.00;3.53;;;;;;;;;;5058736;28;20025;-84
2021/03/22 04:45:40;;;;;;;16.65;3.45;;;;;;;;;;5053492;28;20537;-84
2021/03/22 04:48:07;;;;;;;16.25;3.70;;;;;;;;;;5057908;28;20025;-84
2021/03/22 04:50:33;;;;;;;14.02;3.47;;;;;;;;;;5048795;28;20049;-84
2021/03/22 04:52:59;;;;;;;17.63;3.50;;;;;;;;;;5054581;28;20031;-83
2021/03/22 04:55:25;;;;;;;25.83;3.60;;;;;;;;;;5054526;28;20053;-84
2021/03/22 04:57:52;;;;;;;9.75;2.80;;;;;;;;;;5055105;28;20033;-83
2021/03/22 05:00:29;;;;;;;16.42;3.80;;;;;;;;;;5057222;28;20021;-83
2021/03/22 05:02:55;;;;;;;18.08;4.10;;;;;;;;;;5059539;28;20395;-83
2021/03/22 05:05:22;;;;;;;17.38;3.60;;;;;;;;;;5056660;28;20029;-84
2021/03/22 05:07:48;;;;;;;12.35;3.33;;;;;;;;;;5052541;28;20546;-85
2021/03/22 05:10:19;;;;;;;17.05;3.58;;;;;;;;;;5055704;28;20095;-85
2021/03/22 05:12:45;;;;;;;17.48;3.17;;;;;;;;;;5045623;28;20076;-84
2021/03/22 05:15:12;;;;;;;12.93;3.00;;;;;;;;;;5053319;28;20036;-84
2021/03/22 05:17:38;;;;;;;11.77;2.80;;;;;;;;;;5056030;28;20051;-83
2021/03/22 05:20:05;;;;;;;14.73;4.38;;;;;;;;;;5054607;28;20051;-84
2021/03/22 05:22:31;;;;;;;14.10;3.05;;;;;;;;;;5054242;28;20045;-84
2021/03/22 05:24:57;;;;;;;15.40;4.00;;;;;;;;;;5054542;28;20392;-84
2021/03/22 05:27:23;;;;;;;15.50;3.90;;;;;;;;;;5053988;28;20121;-85
2021/03/22 05:29:49;;;;;;;11.90;2.90;;;;;;;;;;5056636;28;20086;-85
2021/03/22 05:32:32;;;;;;;19.08;3.58;;;;;;;;;;5048165;28;20033;-84
2021/03/22 05:34:59;;;;;;;17.35;3.70;;;;;;;;;;5055980;28;20024;-86
2021/03/22 05:37:25;;;;;;;11.50;3.30;;;;;;;;;;5065190;28;20471;-85
2021/03/22 05:39:51;;;;;;;22.13;4.47;;;;;;;;;;5051212;28;20462;-84
2021/03/22 05:42:20;;;;;;;19.95;4.80;;;;;;;;;;5054189;28;20057;-84
2021/03/22 05:44:51;;;;;;;15.82;4.10;;;;;;;;;;5045117;28;20495;-84
2021/03/22 05:47:19;;;;;;;21.40;4.22;;;;;;;;;;5050572;28;20029;-84
2021/03/22 05:49:53;;;;;;;26.30;3.97;;;;;;;;;;5054869;28;20544;-85
2021/03/22 05:52:32;;;;;;;20.00;4.00;;;;;;;;;;5062001;28;20032;-84
2021/03/22 05:55:04;;;;;;;23.55;4.18;;;;;;;;;;5053850;28;20032;-84
2021/03/22 05:57:39;;;;;;;17.65;4.32;;;;;;;;;;5044291;28;20029;-83
2021/03/22 06:00:09;;;;;;;15.48;4.38;;;;;;;;;;5049292;28;20033;-84
2021/03/22 06:02:44;;;;;;;23.27;4.47;;;;;;;;;;5053554;28;20036;-84
2021/03/22 06:05:18;;;;;;;28.05;4.22;;;;;;;;;;5046701;28;20029;-84
2021/03/22 06:07:48;;;;;;;27.10;4.05;;;;;;;;;;5061077;28;20032;-84
2021/03/22 06:10:18;;;;;;;21.05;4.53;;;;;;;;;;5060812;28;20029;-84
2021/03/22 06:12:50;;;;;;;19.80;4.25;;;;;;;;;;5053581;28;20093;-84
2021/03/22 06:15:33;;;;;;;18.70;3.33;;;;;;;;;;5053437;28;20494;-84
2021/03/22 06:18:18;;;;;;;28.70;4.53;;;;;;;;;;5051410;28;20037;-84
2021/03/22 06:20:44;;;;;;;20.02;4.25;;;;;;;;;;5051672;28;20036;-84
2021/03/22 06:23:22;;;;;;;25.67;4.38;;;;;;;;;;5055162;28;20044;-84
2021/03/22 06:25:49;;;;;;;13.73;4.00;;;;;;;;;;5052656;28;20092;-85
2021/03/22 06:28:15;;;;;;;21.90;3.83;;;;;;;;;;5042038;28;20048;-85
2021/03/22 06:30:52;;;;;;;24.45;4.53;;;;;;;;;;5055730;28;20465;-84
2021/03/22 06:33:26;;;;;;;22.23;3.85;;;;;;;;;;5065576;28;20036;-85
2021/03/22 06:35:51;;;;;;;;;;;;;;;;;;5073579;28;20422;-85
2021/03/22 06:38:17;;;;;;;18.88;4.78;;;;;;;;;;5070591;28;19904;-85
2021/03/22 06:40:43;;;;;;;19.70;4.75;;;;;;;;;;5080986;28;20040;-85
2021/03/22 06:43:14;;;;;;;26.38;4.63;;;;;;;;;;5055812;28;20477;-86
2021/03/22 06:45:41;;;;;;;17.00;4.35;;;;;;;;;;5044798;28;20025;-85
2021/03/22 06:48:25;;;;;;;17.20;4.40;;;;;;;;;;5067192;28;20036;-86
2021/03/22 06:50:52;;;;;;;27.70;5.38;;;;;;;;;;5053087;28;20017;-85
2021/03/22 06:53:51;;;;;;;19.15;4.82;;;;;;;;;;5052864;28;20025;-85
2021/03/22 06:56:37;;;;;;;19.48;4.40;;;;;;;;;;5020066;28;20029;-86
2021/03/22 06:59:13;;;;;;;18.73;3.92;;;;;;;;;;5059614;28;20033;-86
2021/03/22 07:01:44;;;;;;;23.98;4.70;;;;;;;;;;5051905;28;20392;-86
2021/03/22 07:04:31;;;;;;;19.02;3.92;;;;;;;;;;5053854;28;20082;-86
2021/03/22 07:07:12;;;;;;;15.85;4.75;;;;;;;;;;5059865;28;20373;-86
2021/03/22 07:09:52;;;;;;;18.75;3.92;;;;;;;;;;5047492;28;20617;-86
2021/03/22 07:12:25;;;;;;;20.27;4.03;;;;;;;;;;5049452;28;20091;-86
2021/03/22 07:14:51;;;;;;;25.42;5.13;;;;;;;;;;5056124;28;20468;-86
2021/03/22 07:17:20;;;;;;;24.05;5.53;;;;;;;;;;5050474;28;20035;-86
2021/03/22 07:20:05;;;;;;;20.55;4.88;;;;;;;;;;5051513;28;20036;-86
2021/03/22 07:22:31;;;;;;;18.00;4.22;;;;;;;;;;5045787;28;20072;-87
2021/03/22 07:25:04;;;;;;;22.48;5.00;;;;;;;;;;5049674;28;20111;-85
2021/03/22 07:27:39;;;;;;;20.45;4.13;;;;;;;;;;5058628;28;20082;-86
2021/03/22 07:30:31;;;;;;;18.48;5.47;;;;;;;;;;5058027;28;20112;-87
2021/03/22 07:33:15;;;;;;;23.63;3.75;;;;;;;;;;5028117;28;20079;-88
2021/03/22 07:35:49;;;;;;;18.23;4.47;;;;;;;;;;5060843;28;20021;-88
2021/03/22 07:38:22;;;;;;;18.92;4.20;;;;;;;;;;5043452;28;20041;-88
2021/03/22 07:41:00;;;;;;;17.10;4.20;;;;;;;;;;5060616;28;20078;-87
2021/03/22 07:43:39;;;;;;;19.85;4.05;;;;;;;;;;5047120;28;20417;-85
2021/03/22 07:46:13;;;;;;;19.52;4.53;;;;;;;;;;5050003;28;20388;-87
2021/03/22 07:49:01;;;;;;;17.33;3.97;;;;;;;;;;5047118;28;20050;-87
2021/03/22 07:51:30;;;;;;;16.83;3.92;;;;;;;;;;5044764;28;20036;-87
2021/03/22 07:54:14;;;;;;;18.38;3.78;;;;;;;;;;5049641;28;20029;-87
2021/03/22 07:56:57;;;;;;;20.38;3.85;;;;;;;;;;5048008;28;20116;-88
2021/03/22 07:59:27;;;;;;;27.53;4.57;;;;;;;;;;5049461;28;20030;-88
2021/03/22 08:02:03;;;;;;;13.77;3.40;;;;;;;;;;5050062;28;20021;-88
2021/03/22 08:04:42;;;;;;;22.52;4.32;;;;;;;;;;5049698;28;20484;-88
2021/03/22 08:07:20;;;;;;;21.58;4.07;;;;;;;;;;5049090;28;20115;-88
2021/03/22 08:09:53;;;;;;;14.07;4.00;;;;;;;;;;5050843;28;20036;-89
2021/03/22 08:12:41;;;;;;;10.38;3.60;;;;;;;;;;5049794;28;20540;-87
2021/03/22 08:15:19;;;;;;;23.35;4.03;;;;;;;;;;5050358;28;20112;-87
2021/03/22 08:18:04;;;;;;;17.38;3.38;;;;;;;;;;5045628;28;20492;-87
2021/03/22 08:20:33;;;;;;;20.42;3.55;;;;;;;;;;5046795;28;20515;-87
2021/03/22 08:23:12;;;;;;;17.27;4.43;;;;;;;;;;5044338;28;20049;-87
2021/03/22 08:25:52;;;;;;;14.23;3.53;;;;;;;;;;5049267;28;20098;-87
2021/03/22 08:28:37;;;;;;;18.05;3.83;;;;;;;;;;5049135;28;20033;-87
2021/03/22 08:31:06;;;;;;;18.67;3.40;;;;;;;;;;5051516;28;20027;-87
2021/03/22 08:33:39;;;;;;;13.88;3.35;;;;;;;;;;5049153;28;20036;-87
2021/03/22 08:36:23;;;;;;;14.68;3.38;;;;;;;;;;5048941;28;20037;-87
2021/03/22 08:38:54;;;;;;;14.43;3.47;;;;;;;;;;5041682;28;20081;-87
2021/03/22 08:41:24;;;;;;;15.65;3.08;;;;;;;;;;5049606;28;20086;-87
2021/03/22 08:43:52;;;;;;;16.15;6.05;;;;;;;;;;5053678;28;20025;-87
2021/03/22 08:46:18;;;;;;;11.65;2.65;;;;;;;;;;5053416;28;20057;-87
2021/03/22 08:48:45;;;;;;;18.23;3.85;;;;;;;;;;5053487;28;20027;-87
2021/03/22 08:51:17;;;;;;;11.57;3.63;;;;;;;;;;5050581;28;20108;-87
2021/03/22 08:53:43;;;;;;;13.60;3.15;;;;;;;;;;5052698;28;20137;-87
2021/03/22 08:56:24;;;;;;;16.13;3.80;;;;;;;;;;5053609;28;20032;-87
2021/03/22 08:58:52;;;;;;;16.65;3.45;;;;;;;;;;5050022;28;20031;-87
2021/03/22 09:01:18;;;;;;;12.55;3.22;;;;;;;;;;5053686;28;20419;-87
2021/03/22 09:03:45;;;;;;;16.27;3.78;;;;;;;;;;5052467;28;20029;-87
2021/03/22 09:06:24;;;;;;;10.95;3.72;;;;;;;;;;5052610;28;20060;-87
2021/03/22 09:08:50;;;;;;;14.25;3.95;;;;;;;;;;5052620;28;20022;-88
2021/03/22 09:11:25;;;;;;;16.95;3.60;;;;;;;;;;5052792;28;20673;-87
2021/03/22 09:14:03;;;;;;;13.68;3.00;;;;;;;;;;5048539;28;20028;-87
2021/03/22 09:16:29;;;;;;;16.30;3.78;;;;;;;;;;5052380;28;20024;-87
2021/03/22 09:19:11;;;;;;;13.43;3.75;;;;;;;;;;5044870;28;20413;-87
2021/03/22 09:21:37;;;;;;;16.50;3.33;;;;;;;;;;5051946;28;20029;-87
2021/03/22 09:24:04;;;;;;;17.42;4.22;;;;;;;;;;5052705;28;20090;-87
2021/03/22 09:26:49;;;;;;;9.48;2.90;;;;;;;;;;5052304;28;20112;-87
2021/03/22 09:29:35;;;;;;;12.30;3.53;;;;;;;;;;5052453;28;20128;-88
2021/03/22 09:32:02;;;;;;;10.52;3.42;;;;;;;;;;5052555;28;20041;-87
2021/03/22 09:34:33;;;;;;;18.73;9.15;;;;;;;;;;5052785;28;20076;-87
2021/03/22 09:36:59;;;;;;;11.38;2.28;;;;;;;;;;5051722;28;20025;-87
2021/03/22 09:39:25;;;;;;;10.00;2.60;;;;;;;;;;5052822;28;20039;-87
2021/03/22 09:42:01;;;;;;;29.02;15.38;;;;;;;;;;5048022;28;20479;-87
2021/03/22 09:44:47;;;;;;;15.68;3.70;;;;;;;;;;5053960;28;20021;-87
2021/03/22 09:47:20;;;;;;;9.68;3.15;;;;;;;;;;5050257;28;20041;-87
2021/03/22 09:50:03;;;;;;;14.27;3.05;;;;;;;;;;5058534;28;20257;-86
2021/03/22 09:52:31;;;;;;;10.00;2.60;;;;;;;;;;5053490;28;21121;-86
2021/03/22 09:54:58;;;;;;;10.85;3.50;;;;;;;;;;5062760;28;20032;-85
2021/03/22 09:57:38;;;;;;;9.77;2.30;;;;;;;;;;5053132;28;20029;-85
2021/03/22 10:00:07;;;;;;;7.88;2.50;;;;;;;;;;5082731;28;20546;-86
2021/03/22 10:02:50;;;;;;;8.00;2.00;;;;;;;;;;5057184;28;20533;-86
2021/03/22 10:05:21;;;;;;;16.17;3.25;;;;;;;;;;5051950;28;20396;-86
2021/03/22 10:07:52;;;;;;;7.70;2.75;;;;;;;;;;5052326;28;20116;-86
2021/03/22 10:10:18;;;;;;;11.63;3.30;;;;;;;;;;5052643;28;20028;-86
2021/03/22 10:12:48;;;;;;;9.85;2.17;;;;;;;;;;5062551;28;20021;-86
2021/03/22 10:15:14;;;;;;;9.32;2.03;;;;;;;;;;5054174;28;20469;-86
2021/03/22 10:17:53;;;;;;;5.45;2.00;;;;;;;;;;5062685;28;20030;-86
2021/03/22 10:20:19;;;;;;;10.40;2.40;;;;;;;;;;5048770;28;20029;-86
2021/03/22 10:22:46;;;;;;;7.97;1.95;;;;;;;;;;5063181;28;20075;-86
2021/03/22 10:25:25;;;;;;;7.78;1.42;;;;;;;;;;5049407;28;20056;-87
2021/03/22 10:27:59;;;;;;;8.07;2.45;;;;;;;;;;5060402;28;20044;-87
2021/03/22 10:30:25;;;;;;;6.78;1.58;;;;;;;;;;5067276;28;20032;-87
2021/03/22 10:32:59;;;;;;;8.27;2.40;;;;;;;;;;5078045;28;20024;-87
2021/03/22 10:35:28;;;;;;;8.32;1.83;;;;;;;;;;5054182;28;20033;-87
2021/03/22 10:37:55;;;;;;;7.88;1.45;;;;;;;;;;5051159;28;20441;-86
2021/03/22 10:40:27;;;;;;;7.75;4.30;;;;;;;;;;5055862;28;20061;-86
2021/03/22 10:42:55;;;;;;;5.18;1.48;;;;;;;;;;5055286;28;20155;-86
2021/03/22 10:45:24;;;;;;;7.85;1.63;;;;;;;;;;5055599;28;20101;-86
2021/03/22 10:47:51;;;;;;;5.95;1.45;;;;;;;;;;5047309;28;20036;-86
2021/03/22 10:50:20;;;;;;;8.07;1.50;;;;;;;;;;5058419;28;20063;-86
2021/03/22 10:53:00;;;;;;;9.05;1.48;;;;;;;;;;5064121;28;20013;-86
2021/03/22 10:55:27;;;;;;;5.63;1.60;;;;;;;;;;5051074;28;20055;-86
2021/03/22 10:57:54;;;;;;;5.25;2.00;;;;;;;;;;5051252;28;20115;-86
2021/03/22 11:00:21;;;;;;;7.18;1.85;;;;;;;;;;5058467;28;20075;-86
2021/03/22 11:02:49;;;;;;;5.50;1.70;;;;;;;;;;5050502;28;20116;-86
2021/03/22 11:05:16;;;;;;;6.93;2.10;;;;;;;;;;5050453;28;20028;-86
2021/03/22 11:07:42;;;;;;;8.45;1.40;;;;;;;;;;5068757;28;20024;-86
2021/03/22 11:10:14;;;;;;;3.30;1.42;;;;;;;;;;5048565;28;20025;-87
2021/03/22 11:12:45;;;;;;;3.28;1.08;;;;;;;;;;5051519;28;20502;-86
2021/03/22 11:15:17;;;;;;;1.85;0.90;;;;;;;;;;5059778;28;20029;-86
2021/03/22 11:17:44;;;;;;;4.40;1.05;;;;;;;;;;5050986;28;20048;-87
2021/03/22 11:20:11;;;;;;;2.33;1.02;;;;;;;;;;5053303;28;20039;-87
2021/03/22 11:22:39;;;;;;;4.35;1.02;;;;;;;;;;5051355;28;20052;-87
2021/03/22 11:25:38;;;;;;;4.20;0.70;;;;;;;;;;5048654;28;20033;-87
2021/03/22 11:28:05;;;;;;;3.50;0.90;;;;;;;;;;5016605;28;20037;-89
2021/03/22 11:30:33;;;;;;;3.00;1.00;;;;;;;;;;5050964;28;20131;-87
2021/03/22 11:33:00;;;;;;;2.35;0.88;;;;;;;;;;5053193;28;20045;-87
2021/03/22 11:35:29;;;;;;;4.93;1.10;;;;;;;;;;5061367;28;20033;-87
2021/03/22 11:37:56;;;;;;;4.05;1.02;;;;;;;;;;5054576;28;20040;-87
2021/03/22 11:40:24;;;;;;;3.17;0.95;;;;;;;;;;5051935;28;20029;-87
2021/03/22 11:43:01;;;;;;;3.80;0.85;;;;;;;;;;5052295;28;20031;-87
2021/03/22 11:45:38;;;;;;;5.93;0.98;;;;;;;;;;5046061;28;20043;-87
2021/03/22 11:48:06;;;;;;;2.33;0.68;;;;;;;;;;5047631;28;20725;-87
2021/03/22 11:50:40;;;;;;;4.72;1.25;;;;;;;;;;5057006;28;20025;-88
2021/03/22 11:53:09;;;;;;;5.00;1.08;;;;;;;;;;5049598;28;20058;-88
2021/03/22 11:55:37;;;;;;;3.85;0.90;;;;;;;;;;5058955;28;20563;-87
2021/03/22 11:58:03;;;;;;;4.93;1.00;;;;;;;;;;5048278;28;20037;-87
2021/03/22 12:00:35;;;;;;;3.25;0.88;;;;;;;;;;5045702;28;20361;-87
2021/03/22 12:03:08;;;;;;;3.85;0.90;;;;;;;;;;5049651;28;20056;-87
2021/03/22 12:05:39;;;;;;;2.78;0.75;;;;;;;;;;5048094;28;20043;-87
2021/03/22 12:08:23;;;;;;;2.80;0.82;;;;;;;;;;5057276;28;20116;-87
2021/03/22 12:10:51;;;;;;;3.38;0.88;;;;;;;;;;5047253;28;20419;-88
2021/03/22 12:13:17;;;;;;;5.28;0.65;;;;;;;;;;5043635;28;21539;-88
2021/03/22 12:15:43;;;;;;;3.15;1.08;;;;;;;;;;5057878;28;20459;-88
2021/03/22 12:18:10;;;;;;;3.75;0.93;;;;;;;;;;5055926;28;20044;-88
2021/03/22 12:20:37;;;;;;;3.30;0.90;;;;;;;;;;5060246;28;20040;-88
2021/03/22 12:23:04;;;;;;;4.22;1.00;;;;;;;;;;5049355;28;20926;-87
2021/03/22 12:25:31;;;;;;;2.88;0.90;;;;;;;;;;5050062;28;20036;-88
2021/03/22 12:27:57;;;;;;;5.80;1.05;;;;;;;;;;5052798;28;20029;-88
2021/03/22 12:30:24;;;;;;;2.53;0.75;;;;;;;;;;5056259;28;20499;-88
2021/03/22 12:32:53;;;;;;;3.25;0.80;;;;;;;;;;5050457;28;20499;-88
2021/03/22 12:35:24;;;;;;;2.30;1.17;;;;;;;;;;5053305;28;20025;-87
2021/03/22 12:37:51;;;;;;;2.83;0.60;;;;;;;;;;5056616;28;20083;-89
2021/03/22 12:40:17;;;;;;;3.42;0.82;;;;;;;;;;5054168;28;20027;-89
2021/03/22 12:42:44;;;;;;;2.72;0.70;;;;;;;;;;5053372;28;20475;-89
2021/03/22 12:45:34;;;;;;;2.28;0.57;;;;;;;;;;5059670;28;20032;-87
2021/03/22 12:48:00;;;;;;;3.05;0.90;;;;;;;;;;5043492;28;20119;-86
2021/03/22 12:50:29;;;;;;;2.97;0.90;;;;;;;;;;5049259;28;20112;-88
2021/03/22 12:52:56;;;;;;;3.15;1.10;;;;;;;;;;5049368;28;20391;-88
2021/03/22 12:55:23;;;;;;;4.15;0.80;;;;;;;;;;5061500;28;20075;-88
2021/03/22 12:57:50;;;;;;;3.20;0.85;;;;;;;;;;5057033;28;20056;-88
2021/03/22 13:00:16;;;;;;;2.28;0.88;;;;;;;;;;5053630;28;20131;-87
2021/03/22 13:02:45;;;;;;;5.07;1.00;;;;;;;;;;5055259;28;20029;-87
2021/03/22 13:05:19;;;;;;;6.40;1.02;;;;;;;;;;5054957;28;20376;-88
2021/03/22 13:07:45;;;;;;;3.28;1.13;;;;;;;;;;5055380;28;20036;-88
2021/03/22 13:10:12;;;;;;;3.22;0.90;;;;;;;;;;5054540;28;20021;-88
2021/03/22 13:12:38;;;;;;;4.15;0.77;;;;;;;;;;5047372;28;20495;-88
2021/03/22 13:15:05;;;;;;;1.98;0.70;;;;;;;;;;5045909;28;20480;-88
2021/03/22 13:17:32;;;;;;;3.15;0.90;;;;;;;;;;5052777;28;20088;-88
2021/03/22 13:19:59;;;;;;;2.97;0.70;;;;;;;;;;5060057;28;20384;-87
2021/03/22 13:22:26;;;;;;;5.40;1.08;;;;;;;;;;5049222;28;20049;-88
2021/03/22 13:24:52;;;;;;;3.97;1.00;;;;;;;;;;5053475;28;20483;-88
2021/03/22 13:27:19;;;;;;;3.88;0.80;;;;;;;;;;5052639;28;20034;-88
2021/03/22 13:29:45;;;;;;;1.88;0.80;;;;;;;;;;5053791;28;20100;-88
2021/03/22 13:32:11;;;;;;;2.65;0.82;;;;;;;;;;5044145;28;20176;-87
2021/03/22 13:34:38;;;;;;;5.97;0.70;;;;;;;;;;5053778;28;20037;-88
2021/03/22 13:37:08;;;;;;;1.73;0.65;;;;;;;;;;5054262;28;20017;-88
2021/03/22 13:39:35;;;;;;;1.33;0.60;;;;;;;;;;5057335;28;20036;-88
2021/03/22 13:42:01;;;;;;;16.48;1.42;;;;;;;;;;5060187;28;20021;-88
2021/03/22 13:44:27;;;;;;;2.97;0.70;;;;;;;;;;5054275;28;20032;-88
2021/03/22 13:46:53;;;;;;;2.47;0.68;;;;;;;;;;5054562;28;20025;-88
2021/03/22 13:49:19;;;;;;;3.65;0.80;;;;;;;;;;5049657;28;20072;-88
2021/03/22 13:51:45;;;;;;;2.92;0.80;;;;;;;;;;5050913;28;20024;-88
2021/03/22 13:54:15;;;;;;;2.63;0.80;;;;;;;;;;5056669;28;20372;-88
2021/03/22 13:56:40;;;;;;;3.00;0.88;;;;;;;;;;5044788;28;20025;-88
2021/03/22 13:59:15;;;;;;;3.00;1.08;;;;;;;;;;5053526;28;20036;-87
2021/03/22 14:01:41;;;;;;;5.93;1.15;;;;;;;;;;5062960;28;20040;-87
2021/03/22 14:04:07;;;;;;;4.90;1.00;;;;;;;;;;5050105;28;20029;-87
2021/03/22 14:06:33;;;;;;;3.45;0.77;;;;;;;;;;5053934;28;20404;-88
2021/03/22 14:08:59;;;;;;;3.47;0.90;;;;;;;;;;5053005;28;20033;-88
2021/03/22 14:11:25;;;;;;;3.15;0.82;;;;;;;;;;5051746;28;20040;-88
2021/03/22 14:13:51;;;;;;;3.05;0.80;;;;;;;;;;5052813;28;20029;-89
2021/03/22 14:16:17;;;;;;;1.38;0.50;;;;;;;;;;5071572;28;20029;-89
2021/03/22 14:18:46;;;;;;;2.75;1.20;;;;;;;;;;5074013;28;20059;-89
2021/03/22 14:21:12;;;;;;;3.13;0.93;;;;;;;;;;5056050;28;20033;-88
2021/03/22 14:23:38;;;;;;;5.63;0.88;;;;;;;;;;5050615;28;20457;-88
2021/03/22 14:26:04;;;;;;;3.10;0.88;;;;;;;;;;5050616;28;20484;-88
2021/03/22 14:28:30;;;;;;;3.70;0.95;;;;;;;;;;5050883;28;20055;-88
2021/03/22 14:30:56;;;;;;;1.40;0.55;;;;;;;;;;5052752;28;20044;-88
2021/03/22 14:33:24;;;;;;;3.75;0.75;;;;;;;;;;5053923;28;20029;-88
2021/03/22 14:35:50;;;;;;;5.13;1.17;;;;;;;;;;5051773;28;20029;-88
2021/03/22 14:38:16;;;;;;;5.75;0.80;;;;;;;;;;5049967;28;20509;-88
2021/03/22 14:40:42;;;;;;;5.55;0.85;;;;;;;;;;5050161;28;20033;-90
2021/03/22 14:43:12;;;;;;;2.65;0.75;;;;;;;;;;5062415;28;20032;-91
2021/03/22 14:45:38;;;;;;;8.27;1.33;;;;;;;;;;5046879;28;20041;-89
2021/03/22 14:48:05;;;;;;;2.35;0.82;;;;;;;;;;5051369;28;20040;-89
2021/03/22 14:50:33;;;;;;;5.10;1.13;;;;;;;;;;5034912;28;20420;-89
2021/03/22 14:53:00;;;;;;;3.55;0.95;;;;;;;;;;5053450;28;20025;-89
2021/03/22 14:55:27;;;;;;;4.10;1.10;;;;;;;;;;5044571;28;20660;-89